Time;durP1;ratioP1;P1;durP2;ratioP2;P2;SDS_P1;SDS_P2;PMS_P1;PMS_P2;Temp;Humidity;BMP_temperature;BMP_pressure;BME280_temperature;BME280_humidity;BME280_pressure;Samples;Min_cycle;Max_cycle;Signal;HPM_P1;HPM_P2
2022/05/18 00:00:04;;;;;;;3.05;2.40;;;16.60;68.80;;;;;;5093280;28;20103;-75
2022/05/18 00:02:31;;;;;;;6.88;2.78;;;16.50;68.70;;;;;;5093286;28;20461;-74
2022/05/18 00:04:56;;;;;;;6.40;3.05;;;16.50;68.70;;;;;;5093110;28;20070;-74
2022/05/18 00:07:22;;;;;;;6.38;2.53;;;16.40;68.90;;;;;;5093102;28;20023;-74
2022/05/18 00:09:49;;;;;;;5.00;2.72;;;16.40;68.90;;;;;;5092914;28;20035;-75
2022/05/18 00:12:14;;;;;;;4.07;2.65;;;16.40;69.70;;;;;;5092989;28;20396;-74
2022/05/18 00:14:40;;;;;;;4.32;2.50;;;16.50;68.70;;;;;;5092753;28;20043;-74
2022/05/18 00:17:06;;;;;;;4.65;2.58;;;16.50;68.60;;;;;;5074929;28;20032;-74
2022/05/18 00:19:32;;;;;;;9.48;2.83;;;16.50;68.60;;;;;;5092935;28;20032;-74
2022/05/18 00:21:58;;;;;;;6.47;2.50;;;16.50;68.50;;;;;;5093480;28;20048;-74
2022/05/18 00:24:24;;;;;;;7.57;2.60;;;16.50;68.40;;;;;;5099486;28;20077;-74
2022/05/18 00:26:50;;;;;;;7.93;3.25;;;16.40;68.40;;;;;;5099396;28;20399;-74
2022/05/18 00:29:16;;;;;;;5.32;3.08;;;16.50;68.60;;;;;;5081468;28;20028;-74
2022/05/18 00:31:42;;;;;;;5.35;2.58;;;16.40;68.50;;;;;;5099532;28;20383;-74
2022/05/18 00:34:09;;;;;;;3.42;2.75;;;16.30;69.00;;;;;;5099940;28;20020;-74
2022/05/18 00:36:34;;;;;;;4.75;2.72;;;16.30;69.00;;;;;;5102146;28;20073;-74
2022/05/18 00:39:00;;;;;;;4.30;2.67;;;16.20;68.90;;;;;;5099643;28;20039;-74
2022/05/18 00:41:27;;;;;;;9.45;2.72;;;16.20;69.00;;;;;;5099634;28;20020;-74
2022/05/18 00:43:54;;;;;;;5.00;2.65;;;16.20;69.30;;;;;;5081481;28;20028;-74
2022/05/18 00:46:21;;;;;;;8.38;2.92;;;16.20;69.20;;;;;;5099802;28;20490;-74
2022/05/18 00:48:46;;;;;;;8.27;3.15;;;16.20;69.20;;;;;;5099596;28;20024;-74
2022/05/18 00:51:33;;;;;;;7.15;2.88;;;16.20;69.10;;;;;;5099436;28;20065;-74
2022/05/18 00:54:19;;;;;;;4.75;2.78;;;16.20;69.20;;;;;;5099513;28;20500;-74
2022/05/18 00:56:54;;;;;;;;;;;16.20;68.90;;;;;;5099873;28;20086;-74
2022/05/18 00:59:24;;;;;;;5.82;2.70;;;16.20;68.70;;;;;;5099240;28;20006;-74
2022/05/18 01:01:52;;;;;;;6.85;2.60;;;16.20;68.80;;;;;;5099465;28;20028;-74
2022/05/18 01:04:17;;;;;;;8.43;2.53;;;16.20;68.90;;;;;;5099426;28;20023;-74
2022/05/18 01:06:49;;;;;;;4.70;2.67;;;16.10;69.20;;;;;;5099178;28;20643;-74
2022/05/18 01:09:35;;;;;;;5.35;3.08;;;16.10;69.40;;;;;;5099175;28;20020;-74
2022/05/18 01:12:02;;;;;;;7.72;2.70;;;16.00;69.50;;;;;;5099388;28;20089;-74
2022/05/18 01:14:32;;;;;;;3.55;2.70;;;16.10;69.50;;;;;;5099299;28;20023;-74
2022/05/18 01:16:58;;;;;;;7.10;3.00;;;16.00;69.60;;;;;;5099123;28;20028;-74
2022/05/18 01:19:44;;;;;;;6.57;2.75;;;15.90;69.80;;;;;;5099029;28;20039;-74
2022/05/18 01:22:47;;;;;;;6.28;2.72;;;16.00;69.70;;;;;;5099223;28;20047;-74
2022/05/18 01:25:27;;;;;;;4.63;2.92;;;15.90;69.80;;;;;;5099176;28;20480;-74
2022/05/18 01:27:54;;;;;;;8.45;3.17;;;16.00;69.60;;;;;;5099226;28;20119;-74
2022/05/18 01:30:20;;;;;;;8.00;3.03;;;15.90;69.80;;;;;;5080907;28;20024;-74
2022/05/18 01:32:51;;;;;;;3.42;2.55;;;15.80;70.00;;;;;;5097785;28;20111;-73
2022/05/18 01:35:24;;;;;;;3.55;2.72;;;15.80;70.30;;;;;;5095068;28;20059;-74
2022/05/18 01:37:50;;;;;;;6.75;2.67;;;15.80;70.20;;;;;;5096074;28;20504;-74
2022/05/18 01:40:57;;;;;;;4.80;3.03;;;15.80;70.20;;;;;;5095818;28;20102;-73
2022/05/18 01:43:53;;;;;;;4.03;2.42;;;15.80;70.40;;;;;;5095782;28;20035;-74
2022/05/18 01:46:20;;;;;;;5.13;2.75;;;15.80;70.40;;;;;;5095734;28;20503;-74
2022/05/18 01:48:49;;;;;;;5.63;2.80;;;15.80;70.00;;;;;;5095692;28;20027;-74
2022/05/18 01:51:32;;;;;;;4.00;2.60;;;15.80;70.20;;;;;;5095608;28;20020;-74
2022/05/18 01:53:58;;;;;;;4.65;2.38;;;15.90;70.20;;;;;;5077303;28;20391;-74
2022/05/18 01:56:24;;;;;;;7.30;2.85;;;15.90;70.00;;;;;;5095526;28;20024;-74
2022/05/18 01:58:50;;;;;;;4.60;2.60;;;15.90;69.90;;;;;;5095568;28;20039;-74
2022/05/18 02:01:16;;;;;;;3.83;2.70;;;16.00;69.70;;;;;;5095411;28;20028;-74
2022/05/18 02:03:42;;;;;;;4.47;3.10;;;16.00;69.50;;;;;;5095341;28;20024;-74
2022/05/18 02:06:07;;;;;;;3.80;2.72;;;16.00;69.50;;;;;;5095312;28;20389;-74
2022/05/18 02:08:33;;;;;;;6.15;2.92;;;16.00;69.30;;;;;;5095275;28;20024;-74
2022/05/18 02:10:59;;;;;;;4.03;2.80;;;16.00;69.20;;;;;;5095282;28;20087;-74
2022/05/18 02:13:24;;;;;;;4.50;3.17;;;16.00;69.10;;;;;;5095125;28;20024;-75
2022/05/18 02:15:50;;;;;;;4.25;2.80;;;16.00;69.20;;;;;;5095073;28;20028;-74
2022/05/18 02:18:15;;;;;;;5.13;3.13;;;16.00;69.10;;;;;;5094971;28;20094;-74
2022/05/18 02:20:41;;;;;;;8.50;3.05;;;15.80;69.60;;;;;;5094927;28;20048;-74
2022/05/18 02:23:08;;;;;;;8.32;3.50;;;15.70;70.10;;;;;;5095035;28;20511;-74
2022/05/18 02:25:36;;;;;;;5.15;3.53;;;15.50;70.80;;;;;;5095040;28;20031;-77
2022/05/18 02:28:02;;;;;;;5.07;3.22;;;15.50;71.10;;;;;;5094941;28;20511;-75
2022/05/18 02:30:28;;;;;;;5.75;3.15;;;15.40;71.10;;;;;;5094609;28;20455;-74
2022/05/18 02:32:54;;;;;;;6.53;3.80;;;15.50;71.30;;;;;;5094929;28;20024;-73
2022/05/18 02:35:19;;;;;;;3.83;3.15;;;15.40;71.20;;;;;;5094865;28;20024;-73
2022/05/18 02:37:45;;;;;;;6.50;3.38;;;15.40;71.50;;;;;;5094341;28;20024;-75
2022/05/18 02:40:11;;;;;;;7.68;3.78;;;15.50;71.40;;;;;;5094423;28;20043;-74
2022/05/18 02:42:37;;;;;;;4.95;3.28;;;15.40;71.40;;;;;;5094650;28;20078;-75
2022/05/18 02:45:04;;;;;;;5.32;2.92;;;15.50;71.50;;;;;;5093939;28;20027;-72
2022/05/18 02:47:30;;;;;;;5.40;3.25;;;15.40;71.40;;;;;;5094420;28;20069;-74
2022/05/18 02:49:56;;;;;;;6.50;3.63;;;15.40;71.30;;;;;;5094581;28;20107;-75
2022/05/18 02:52:21;;;;;;;6.45;3.42;;;15.40;71.50;;;;;;5076435;28;20021;-75
2022/05/18 02:57:31;;;;;;;6.07;3.60;;;15.30;72.00;;;;;;5094475;28;20130;-75
2022/05/18 02:59:57;;;;;;;7.88;3.38;;;15.20;72.10;;;;;;5094286;28;20539;-75
2022/05/18 03:02:22;;;;;;;6.65;3.42;;;15.20;72.40;;;;;;5093956;28;20024;-75
2022/05/18 03:04:48;;;;;;;4.88;3.63;;;15.20;72.30;;;;;;5094319;28;20388;-75
2022/05/18 03:07:14;;;;;;;6.57;3.80;;;15.20;72.50;;;;;;5094169;28;20028;-75
2022/05/18 03:09:39;;;;;;;5.90;3.97;;;15.10;72.70;;;;;;5093997;28;20035;-75
2022/05/18 03:12:06;;;;;;;6.10;3.63;;;15.10;72.80;;;;;;5093982;28;20024;-75
2022/05/18 03:14:32;;;;;;;4.68;3.47;;;15.00;72.80;;;;;;5094135;28;20484;-75
2022/05/18 03:16:59;;;;;;;7.05;4.13;;;15.10;73.00;;;;;;5094188;28;20392;-75
2022/05/18 03:19:25;;;;;;;5.30;3.83;;;15.10;72.80;;;;;;5093933;28;20032;-77
2022/05/18 03:24:36;;;;;;;4.18;3.20;;;15.10;72.90;;;;;;5094012;28;20043;-73
2022/05/18 03:27:01;;;;;;;7.97;3.40;;;15.20;72.60;;;;;;5093806;28;20111;-73
2022/05/18 03:29:27;;;;;;;5.68;3.80;;;15.20;72.30;;;;;;5093860;28;20389;-73
2022/05/18 03:31:52;;;;;;;9.43;4.60;;;15.30;72.20;;;;;;5093856;28;20051;-73
2022/05/18 03:34:18;;;;;;;6.32;4.20;;;15.30;72.00;;;;;;5093590;28;20110;-73
2022/05/18 03:36:44;;;;;;;7.40;3.75;;;15.40;71.90;;;;;;5093676;28;20086;-73
2022/05/18 03:39:10;;;;;;;5.47;4.15;;;15.40;71.80;;;;;;5093416;28;20035;-73
2022/05/18 03:41:36;;;;;;;11.38;4.65;;;15.40;71.70;;;;;;5093673;28;20090;-73
2022/05/18 03:44:03;;;;;;;5.32;4.35;;;15.30;71.60;;;;;;5093407;28;20028;-73
2022/05/18 03:46:29;;;;;;;6.43;3.75;;;15.30;71.60;;;;;;5093335;28;20069;-73
2022/05/18 03:48:55;;;;;;;6.10;3.83;;;15.30;71.60;;;;;;5093296;28;20032;-74
2022/05/18 03:51:20;;;;;;;8.65;4.40;;;15.40;71.40;;;;;;5075110;28;20020;-73
2022/05/18 03:53:46;;;;;;;7.93;4.55;;;15.40;71.50;;;;;;5091948;28;20020;-77
2022/05/18 03:56:13;;;;;;;5.35;3.95;;;15.30;71.50;;;;;;5093238;28;20032;-74
2022/05/18 03:58:39;;;;;;;6.90;3.80;;;15.40;71.20;;;;;;5092847;28;20081;-77
2022/05/18 04:01:09;;;;;;;8.75;4.07;;;15.40;72.00;;;;;;5093425;28;20024;-74
2022/05/18 04:03:41;;;;;;;6.78;3.85;;;15.40;71.20;;;;;;5093560;28;20016;-73
2022/05/18 04:06:07;;;;;;;6.78;3.97;;;15.40;71.00;;;;;;5093166;28;20491;-74
2022/05/18 04:08:32;;;;;;;8.32;4.00;;;15.50;71.10;;;;;;5096544;28;20032;-74
2022/05/18 04:10:58;;;;;;;9.50;3.90;;;15.50;71.80;;;;;;5077651;28;20058;-75
2022/05/18 04:13:25;;;;;;;4.50;3.72;;;15.50;70.60;;;;;;5093154;28;20035;-73
2022/05/18 04:15:51;;;;;;;7.53;4.35;;;15.60;70.50;;;;;;5092943;28;20062;-74
2022/05/18 04:18:17;;;;;;;7.55;4.28;;;15.60;70.40;;;;;;5093015;28;20028;-74
2022/05/18 04:20:44;;;;;;;8.65;4.30;;;15.70;70.20;;;;;;5092873;28;20573;-74
2022/05/18 04:23:10;;;;;;;7.82;4.70;;;15.70;70.10;;;;;;5093030;28;20048;-74
2022/05/18 04:25:36;;;;;;;7.90;3.97;;;15.70;70.10;;;;;;5074981;28;20099;-74
2022/05/18 04:28:03;;;;;;;5.13;3.85;;;15.70;70.00;;;;;;5092998;28;20028;-73
2022/05/18 04:30:29;;;;;;;8.70;4.38;;;15.80;69.60;;;;;;5092917;28;20448;-76
2022/05/18 04:32:55;;;;;;;7.50;3.78;;;15.80;70.20;;;;;;5092902;28;20028;-73
2022/05/18 04:35:24;;;;;;;9.40;4.13;;;15.90;69.00;;;;;;5074853;28;20111;-73
2022/05/18 04:37:49;;;;;;;8.70;4.35;;;15.90;68.70;;;;;;5092808;28;20028;-74
2022/05/18 04:40:15;;;;;;;7.00;3.75;;;15.90;68.80;;;;;;5092859;28;20024;-73
2022/05/18 04:42:41;;;;;;;4.88;3.83;;;16.00;68.70;;;;;;5092830;28;20066;-73
2022/05/18 04:45:09;;;;;;;6.35;3.80;;;16.00;68.40;;;;;;5092913;28;20063;-74
2022/05/18 04:47:35;;;;;;;8.65;4.05;;;16.00;68.10;;;;;;5092697;28;20444;-74
2022/05/18 04:50:01;;;;;;;7.47;3.92;;;16.10;67.70;;;;;;5092500;28;20031;-73
2022/05/18 04:52:26;;;;;;;6.30;3.88;;;16.20;67.60;;;;;;5092467;28;20111;-75
2022/05/18 04:54:52;;;;;;;7.13;3.85;;;16.20;67.60;;;;;;5092682;28;20479;-73
2022/05/18 04:57:18;;;;;;;5.07;3.58;;;16.30;67.50;;;;;;5092590;28;20027;-73
2022/05/18 04:59:45;;;;;;;8.90;3.60;;;16.40;66.80;;;;;;5092592;28;20637;-75
2022/05/18 05:02:10;;;;;;;6.45;4.13;;;16.40;66.80;;;;;;5092693;28;20020;-73
2022/05/18 05:04:36;;;;;;;5.32;3.30;;;16.50;66.80;;;;;;5092631;28;20505;-74
2022/05/18 05:07:03;;;;;;;7.35;4.03;;;16.60;66.80;;;;;;5092746;28;20495;-74
2022/05/18 05:09:29;;;;;;;10.27;3.63;;;16.70;66.50;;;;;;5093475;28;20034;-73
2022/05/18 05:11:55;;;;;;;7.75;3.95;;;16.70;65.90;;;;;;5096232;28;20020;-74
2022/05/18 05:14:21;;;;;;;9.13;4.18;;;16.80;66.50;;;;;;5096336;28;20111;-74
2022/05/18 05:16:47;;;;;;;9.43;3.60;;;16.90;65.60;;;;;;5095949;28;20024;-76
2022/05/18 05:19:14;;;;;;;7.97;4.28;;;17.00;65.40;;;;;;5096040;28;20755;-73
2022/05/18 05:21:42;;;;;;;7.85;4.75;;;17.00;65.10;;;;;;5095906;28;20048;-75
2022/05/18 05:24:14;;;;;;;6.35;4.13;;;17.10;65.20;;;;;;5095969;28;20583;-74
2022/05/18 05:26:41;;;;;;;11.45;4.32;;;17.20;64.90;;;;;;5095758;28;20020;-75
2022/05/18 05:29:06;;;;;;;5.25;4.10;;;17.30;64.40;;;;;;5095463;28;20024;-74
2022/05/18 05:31:32;;;;;;;7.32;3.97;;;17.30;64.20;;;;;;5095015;28;20366;-74
2022/05/18 05:33:58;;;;;;;6.68;4.07;;;17.40;64.20;;;;;;5096050;28;20028;-74
2022/05/18 05:36:24;;;;;;;7.90;3.53;;;17.50;63.90;;;;;;5095214;28;20474;-74
2022/05/18 05:38:49;;;;;;;7.28;3.78;;;17.50;64.00;;;;;;5095350;28;20043;-73
2022/05/18 05:41:16;;;;;;;8.43;3.70;;;17.50;64.10;;;;;;5095447;28;20464;-73
2022/05/18 05:43:41;;;;;;;9.93;4.13;;;17.60;63.30;;;;;;5095474;28;20056;-73
2022/05/18 05:46:13;;;;;;;5.78;3.67;;;17.70;63.60;;;;;;5095259;28;20021;-73
2022/05/18 05:48:41;;;;;;;8.25;3.88;;;17.70;63.60;;;;;;5095356;28;20415;-73
2022/05/18 05:51:12;;;;;;;6.85;3.75;;;17.80;63.20;;;;;;5095432;28;20020;-74
2022/05/18 05:53:39;;;;;;;10.15;3.63;;;17.90;63.00;;;;;;5095533;28;20016;-73
2022/05/18 05:56:09;;;;;;;8.57;3.53;;;18.00;62.60;;;;;;5096132;28;20070;-73
2022/05/18 05:58:36;;;;;;;5.88;3.25;;;18.10;62.40;;;;;;5098835;28;20024;-74
2022/05/18 06:01:04;;;;;;;6.82;3.88;;;18.30;61.80;;;;;;5096229;28;20023;-74
2022/05/18 06:03:31;;;;;;;6.32;3.05;;;18.50;61.10;;;;;;5095081;28;20047;-74
2022/05/18 06:05:56;;;;;;;13.80;4.28;;;18.60;60.00;;;;;;5095323;28;20024;-73
2022/05/18 06:08:23;;;;;;;14.98;5.18;;;18.90;62.70;;;;;;5095237;28;20070;-73
2022/05/18 06:10:49;;;;;;;7.78;3.40;;;19.20;61.50;;;;;;5094908;28;20303;-73
2022/05/18 06:13:14;;;;;;;7.40;2.90;;;19.30;58.80;;;;;;5077438;28;20077;-73
2022/05/18 06:15:40;;;;;;;5.97;3.03;;;19.50;58.50;;;;;;5095914;28;20368;-73
2022/05/18 06:18:06;;;;;;;9.50;3.38;;;19.60;57.20;;;;;;5095324;28;20031;-73
2022/05/18 06:20:32;;;;;;;6.93;2.83;;;19.70;56.80;;;;;;5077181;28;20158;-73
2022/05/18 06:22:58;;;;;;;5.65;2.80;;;19.90;55.80;;;;;;5095800;28;20034;-74
2022/05/18 06:25:25;;;;;;;5.50;2.92;;;20.00;55.00;;;;;;5095537;28;20047;-73
2022/05/18 06:27:51;;;;;;;5.40;2.70;;;20.20;54.90;;;;;;5095988;28;20016;-74
2022/05/18 06:30:16;;;;;;;6.15;2.75;;;20.20;54.90;;;;;;5095775;28;20161;-73
2022/05/18 06:32:42;;;;;;;5.80;2.35;;;20.30;54.00;;;;;;5078154;28;20122;-73
2022/05/18 06:35:08;;;;;;;4.35;2.92;;;20.50;53.40;;;;;;5095436;28;20028;-73
2022/05/18 06:37:34;;;;;;;7.93;3.00;;;20.60;52.60;;;;;;5095427;28;20025;-73
2022/05/18 06:40:06;;;;;;;4.90;2.53;;;20.70;52.10;;;;;;5094990;28;20027;-73
2022/05/18 06:42:33;;;;;;;3.85;2.72;;;20.80;51.30;;;;;;5094528;28;20050;-73
2022/05/18 06:44:59;;;;;;;5.30;2.67;;;20.80;50.70;;;;;;5094514;28;20483;-72
2022/05/18 06:47:26;;;;;;;4.68;3.08;;;20.90;50.40;;;;;;5094418;28;20099;-73
2022/05/18 06:49:52;;;;;;;3.35;2.55;;;20.90;50.00;;;;;;5076112;28;20024;-73
2022/05/18 06:52:18;;;;;;;6.25;2.78;;;21.00;49.80;;;;;;5094219;28;20486;-73
2022/05/18 06:54:45;;;;;;;5.43;3.13;;;21.00;49.20;;;;;;5094431;28;20022;-74
2022/05/18 06:57:10;;;;;;;10.82;3.20;;;21.20;48.90;;;;;;5095090;28;20375;-74
2022/05/18 06:59:36;;;;;;;7.18;3.53;;;21.30;48.60;;;;;;5093850;28;20093;-72
2022/05/18 07:02:02;;;;;;;6.35;2.90;;;21.30;49.30;;;;;;5094258;28;20437;-73
2022/05/18 07:04:28;;;;;;;4.07;2.70;;;21.30;48.30;;;;;;5093777;28;20035;-72
2022/05/18 07:06:54;;;;;;;4.82;3.00;;;21.40;47.70;;;;;;5093772;28;20353;-73
2022/05/18 07:09:21;;;;;;;5.28;2.70;;;21.40;47.60;;;;;;5093812;28;20024;-72
2022/05/18 07:11:49;;;;;;;4.35;3.15;;;21.40;47.20;;;;;;5093712;28;20024;-73
2022/05/18 07:14:16;;;;;;;5.78;2.83;;;21.40;46.70;;;;;;5093663;28;20422;-72
2022/05/18 07:16:43;;;;;;;4.75;3.05;;;21.50;46.90;;;;;;5093618;28;20024;-72
2022/05/18 07:19:09;;;;;;;9.27;3.40;;;21.60;46.90;;;;;;5074983;28;20442;-73
2022/05/18 07:21:35;;;;;;;4.68;2.83;;;21.70;46.40;;;;;;5093378;28;20044;-73
2022/05/18 07:24:00;;;;;;;6.97;2.70;;;21.80;45.90;;;;;;5093757;28;20498;-73
2022/05/18 07:26:28;;;;;;;5.57;3.03;;;21.80;46.20;;;;;;5093731;28;20461;-73
2022/05/18 07:28:54;;;;;;;5.35;3.13;;;21.90;46.20;;;;;;5093335;28;20042;-73
2022/05/18 07:31:20;;;;;;;4.38;2.78;;;21.90;45.60;;;;;;5093217;28;20024;-73
2022/05/18 07:33:49;;;;;;;5.28;3.00;;;22.00;45.10;;;;;;5092864;28;20027;-73
2022/05/18 07:36:16;;;;;;;6.32;2.85;;;22.10;45.30;;;;;;5093237;28;20024;-73
2022/05/18 07:38:42;;;;;;;3.88;3.03;;;22.10;44.30;;;;;;5093551;28;20388;-74
2022/05/18 07:41:12;;;;;;;8.35;3.40;;;22.10;45.20;;;;;;5094119;28;20028;-75
2022/05/18 07:43:38;;;;;;;4.07;2.63;;;22.30;46.20;;;;;;5093681;28;20027;-74
2022/05/18 07:46:04;;;;;;;7.60;3.25;;;22.50;45.00;;;;;;5093529;28;20031;-74
2022/05/18 07:48:30;;;;;;;8.20;2.70;;;22.60;44.40;;;;;;5093429;28;20504;-74
2022/05/18 07:50:57;;;;;;;5.93;2.60;;;22.80;44.60;;;;;;5092876;28;20024;-74
2022/05/18 07:53:24;;;;;;;5.63;3.40;;;22.90;44.70;;;;;;5093018;28;20020;-74
2022/05/18 07:55:49;;;;;;;3.70;2.60;;;23.10;43.70;;;;;;5093062;28;20487;-75
2022/05/18 07:58:17;;;;;;;4.75;2.75;;;23.20;43.60;;;;;;5092730;28;20111;-74
2022/05/18 08:00:42;;;;;;;6.93;2.72;;;23.30;42.60;;;;;;5091182;28;20099;-75
2022/05/18 08:03:09;;;;;;;5.43;2.88;;;23.30;41.30;;;;;;5090379;28;20438;-74
2022/05/18 08:05:36;;;;;;;6.13;2.63;;;23.30;41.60;;;;;;5090619;28;20103;-75
2022/05/18 08:08:12;;;;;;;5.93;2.67;;;23.30;42.00;;;;;;5073415;28;20111;-74
2022/05/18 08:16:07;;;;;;;5.75;2.67;;;23.20;40.70;;;;;;5092677;28;20569;-74
2022/05/18 08:18:33;;;;;;;6.10;2.80;;;23.10;40.10;;;;;;5092231;28;20032;-75
2022/05/18 08:20:59;;;;;;;4.45;2.78;;;23.10;40.10;;;;;;5092041;28;20535;-73
2022/05/18 08:23:25;;;;;;;6.75;2.60;;;23.10;40.20;;;;;;5092431;28;20063;-73
2022/05/18 08:25:53;;;;;;;9.20;2.80;;;23.10;40.40;;;;;;5092542;28;20048;-74
2022/05/18 08:28:18;;;;;;;4.00;2.35;;;23.20;40.70;;;;;;5092810;28;20077;-74
2022/05/18 08:30:44;;;;;;;4.10;2.20;;;23.30;39.80;;;;;;5092830;28;20024;-73
2022/05/18 08:33:11;;;;;;;4.13;2.47;;;23.30;40.20;;;;;;5092705;28;20488;-74
2022/05/18 08:35:36;;;;;;;19.33;3.85;;;23.50;41.20;;;;;;5074648;28;20024;-73
2022/05/18 08:38:03;;;;;;;8.48;3.60;;;23.70;39.80;;;;;;5092613;28;20520;-73
2022/05/18 08:40:28;;;;;;;5.43;3.28;;;23.70;39.00;;;;;;5092571;28;20487;-73
2022/05/18 08:42:56;;;;;;;10.13;3.65;;;23.70;38.80;;;;;;5092813;28;20020;-73
2022/05/18 08:45:29;;;;;;;9.73;3.15;;;23.70;39.10;;;;;;5096973;28;20024;-73
2022/05/18 08:48:06;;;;;;;4.63;2.40;;;23.70;39.40;;;;;;5096785;28;20025;-73
2022/05/18 08:50:32;;;;;;;3.55;2.35;;;23.80;39.80;;;;;;5096886;28;20486;-72
2022/05/18 08:53:19;;;;;;;4.97;2.63;;;23.90;40.10;;;;;;5096821;28;20103;-72
2022/05/18 08:56:08;;;;;;;5.15;3.00;;;24.00;37.70;;;;;;5078494;28;20024;-72
2022/05/18 08:59:05;;;;;;;8.80;2.42;;;24.10;38.60;;;;;;5077823;28;20036;-72
2022/05/18 09:01:41;;;;;;;6.90;2.30;;;24.00;37.60;;;;;;5079699;28;20032;-72
2022/05/18 09:04:11;;;;;;;5.32;2.47;;;23.90;37.00;;;;;;5096092;28;20020;-72
2022/05/18 09:06:43;;;;;;;3.75;2.13;;;23.90;37.10;;;;;;5095541;28;20024;-72
2022/05/18 09:11:58;;;;;;;4.18;2.42;;;23.70;36.20;;;;;;5096116;28;20031;-73
2022/05/18 09:14:25;;;;;;;9.63;2.58;;;23.60;35.50;;;;;;5096062;28;20050;-73
2022/05/18 09:17:12;;;;;;;7.75;2.10;;;23.70;37.00;;;;;;5095817;28;20013;-73
2022/05/18 09:19:51;;;;;;;5.20;2.67;;;23.70;36.90;;;;;;5095533;28;20032;-73
2022/05/18 09:22:45;;;;;;;5.50;2.25;;;23.70;36.60;;;;;;5096105;28;20036;-72
2022/05/18 09:25:29;;;;;;;2.53;1.70;;;23.80;36.60;;;;;;5096123;28;20027;-73
2022/05/18 09:28:19;;;;;;;4.35;2.47;;;23.90;34.90;;;;;;5095865;28;20373;-74
2022/05/18 09:31:00;;;;;;;5.68;2.45;;;24.10;35.00;;;;;;5095817;28;20021;-73
2022/05/18 09:34:13;;;;;;;5.15;2.25;;;24.20;35.80;;;;;;5095493;28;20418;-73
2022/05/18 09:37:07;;;;;;;7.50;2.80;;;24.30;36.00;;;;;;5059252;28;20032;-73
2022/05/18 09:39:38;;;;;;;4.93;2.00;;;24.30;35.20;;;;;;5088040;28;20131;-75
2022/05/18 09:42:08;;;;;;;5.25;1.63;;;24.30;34.70;;;;;;5095694;28;20073;-75
2022/05/18 09:44:56;;;;;;;3.28;1.90;;;24.40;33.20;;;;;;5100799;28;20099;-74
2022/05/18 09:47:25;;;;;;;5.13;2.10;;;24.60;32.60;;;;;;5096495;28;20020;-75
2022/05/18 09:49:53;;;;;;;4.13;1.85;;;24.50;32.90;;;;;;5095583;28;20042;-75
2022/05/18 09:52:26;;;;;;;2.80;1.83;;;24.60;33.50;;;;;;5095462;28;20027;-75
2022/05/18 09:54:59;;;;;;;4.70;1.80;;;24.80;33.40;;;;;;5094132;28;20024;-74
2022/05/18 09:57:43;;;;;;;4.88;2.20;;;24.90;32.80;;;;;;5095617;28;20024;-75
2022/05/18 10:00:21;;;;;;;6.32;2.20;;;25.10;33.90;;;;;;5095456;28;20028;-75
2022/05/18 10:08:22;;;;;;;4.22;2.10;;;25.70;32.10;;;;;;5094707;28;20052;-74
2022/05/18 10:10:58;;;;;;;3.38;1.70;;;25.90;32.40;;;;;;5058460;28;20071;-73
2022/05/18 10:13:28;;;;;;;3.85;1.92;;;26.10;31.80;;;;;;5074271;28;20079;-74
2022/05/18 10:16:05;;;;;;;2.65;1.70;;;26.20;31.30;;;;;;5074144;28;20060;-74
2022/05/18 10:19:01;;;;;;;4.60;1.70;;;26.40;31.20;;;;;;5074274;28;20090;-72
2022/05/18 10:21:48;;;;;;;3.58;1.85;;;26.60;31.30;;;;;;5085764;28;20404;-72
2022/05/18 10:24:26;;;;;;;3.50;1.88;;;26.70;30.10;;;;;;5115222;28;20055;-73
2022/05/18 10:27:16;;;;;;;5.38;1.90;;;26.90;28.40;;;;;;5114715;28;20020;-72
2022/05/18 10:29:44;;;;;;;2.88;1.88;;;26.70;27.40;;;;;;5114466;28;20049;-72
2022/05/18 10:32:22;;;;;;;3.67;1.70;;;26.50;28.30;;;;;;5114867;28;20036;-72
2022/05/18 10:34:53;;;;;;;2.55;1.65;;;26.50;29.00;;;;;;5114791;28;20028;-72
2022/05/18 10:37:34;;;;;;;5.47;1.80;;;26.30;28.50;;;;;;5114677;28;20032;-71
2022/05/18 10:40:12;;;;;;;4.95;2.25;;;26.40;28.00;;;;;;5114316;28;20115;-73
2022/05/18 10:42:51;;;;;;;2.20;1.30;;;26.20;28.30;;;;;;5114249;28;20015;-75
2022/05/18 10:45:25;;;;;;;2.22;1.50;;;26.30;29.40;;;;;;5096134;28;20031;-76
2022/05/18 10:47:53;;;;;;;3.47;1.80;;;26.50;29.70;;;;;;5114099;28;20020;-72
2022/05/18 10:50:23;;;;;;;2.08;1.83;;;26.80;30.10;;;;;;5114245;28;20050;-72
2022/05/18 10:52:59;;;;;;;3.83;1.75;;;27.10;29.10;;;;;;5095389;28;20023;-73
2022/05/18 10:55:26;;;;;;;3.13;1.45;;;27.20;26.90;;;;;;5114132;28;20486;-74
2022/05/18 10:58:03;;;;;;;4.65;1.90;;;27.10;25.80;;;;;;5096645;28;20031;-81
2022/05/18 11:00:49;;;;;;;4.38;1.85;;;27.20;26.90;;;;;;5085645;28;20490;-84
2022/05/18 11:03:21;;;;;;;2.10;1.20;;;27.40;27.40;;;;;;5075676;28;20031;-79
2022/05/18 11:05:52;;;;;;;3.00;1.38;;;27.60;26.10;;;;;;5075965;28;20502;-74
2022/05/18 11:08:21;;;;;;;3.15;1.20;;;27.70;25.00;;;;;;5075729;28;20031;-72
2022/05/18 11:11:09;;;;;;;4.00;1.90;;;27.90;24.50;;;;;;5075993;28;20055;-79
2022/05/18 11:13:50;;;;;;;2.95;1.50;;;28.00;25.50;;;;;;5092722;28;20383;-80
2022/05/18 11:16:22;;;;;;;3.10;1.60;;;27.90;24.80;;;;;;5076340;28;20020;-86
2022/05/18 11:19:02;;;;;;;8.18;1.50;;;27.70;24.00;;;;;;5092611;28;20035;-76
2022/05/18 11:21:45;;;;;;;4.57;1.40;;;27.70;23.90;;;;;;5061010;28;20139;-84
2022/05/18 11:24:27;;;;;;;4.68;1.52;;;27.80;25.50;;;;;;5054473;28;20370;-75
2022/05/18 11:27:17;;;;;;;2.03;1.30;;;28.00;25.00;;;;;;5034945;28;20021;-74
2022/05/18 11:29:52;;;;;;;1.48;1.17;;;28.20;24.20;;;;;;5035107;28;20035;-73
2022/05/18 11:32:31;;;;;;;;;;;28.40;23.90;;;;;;5044404;28;20040;-76
2022/05/18 11:35:18;;;;;;;3.55;1.40;;;28.50;23.10;;;;;;5051769;28;19952;-77
2022/05/18 11:38:14;;;;;;;6.25;1.80;;;28.60;23.60;;;;;;5035032;28;20040;-76
2022/05/18 11:41:03;;;;;;;2.38;1.30;;;28.70;22.90;;;;;;5035359;28;20025;-74
2022/05/18 11:43:44;;;;;;;2.72;1.33;;;28.70;22.10;;;;;;5051779;28;20052;-74
2022/05/18 11:46:27;;;;;;;4.65;1.40;;;28.80;22.40;;;;;;5051515;28;20492;-78
2022/05/18 11:49:00;;;;;;;5.00;1.75;;;28.60;23.60;;;;;;5051925;28;20067;-78
2022/05/18 11:51:40;;;;;;;3.90;1.40;;;28.70;23.30;;;;;;5051936;28;20116;-75
2022/05/18 11:54:13;;;;;;;3.38;1.52;;;28.80;24.10;;;;;;5056335;28;20091;-75
2022/05/18 11:56:54;;;;;;;2.72;1.92;;;29.00;24.40;;;;;;5043264;28;20427;-75
2022/05/18 12:02:29;;;;;;;2.58;1.80;;;29.60;22.90;;;;;;5053047;28;20025;-78
2022/05/18 12:05:11;;;;;;;2.25;1.55;;;29.90;23.10;;;;;;5037837;28;20025;-82
2022/05/18 12:08:01;;;;;;;3.80;1.55;;;30.00;23.50;;;;;;5036016;28;20025;-75
2022/05/18 12:10:43;;;;;;;6.28;1.77;;;30.10;22.30;;;;;;5035772;28;20092;-83
2022/05/18 12:13:32;;;;;;;7.35;1.90;;;30.00;22.90;;;;;;5038851;28;20025;-75
2022/05/18 12:16:08;;;;;;;2.63;1.73;;;29.80;22.00;;;;;;5034824;28;20021;-74
2022/05/18 12:18:34;;;;;;;4.82;1.83;;;29.50;22.20;;;;;;5033824;28;20047;-73
2022/05/18 12:21:06;;;;;;;1.85;1.40;;;29.20;22.70;;;;;;5045512;28;20049;-75
2022/05/18 12:23:39;;;;;;;5.05;1.60;;;29.20;23.90;;;;;;5056232;28;20031;-73
2022/05/18 12:26:05;;;;;;;2.85;1.35;;;29.00;22.10;;;;;;5054745;28;20028;-75
2022/05/18 12:28:32;;;;;;;4.93;1.80;;;29.10;21.10;;;;;;5062696;28;20054;-73
2022/05/18 12:31:00;;;;;;;3.55;1.30;;;29.00;21.30;;;;;;5077889;28;20043;-75
2022/05/18 12:33:26;;;;;;;4.15;1.77;;;29.00;21.80;;;;;;5074304;28;20474;-78
2022/05/18 12:36:05;;;;;;;4.60;1.50;;;29.00;22.40;;;;;;5056841;28;20034;-73
2022/05/18 12:38:58;;;;;;;2.65;1.85;;;29.00;22.30;;;;;;5074780;28;20028;-76
2022/05/18 12:41:27;;;;;;;11.20;2.30;;;29.00;24.30;;;;;;5057980;28;20127;-78
2022/05/18 12:44:06;;;;;;;1.98;1.70;;;29.20;25.60;;;;;;5073718;28;20024;-74
2022/05/18 12:46:38;;;;;;;3.90;2.05;;;29.10;24.80;;;;;;5085951;28;20031;-73
2022/05/18 12:49:17;;;;;;;8.90;1.95;;;29.20;24.40;;;;;;5069473;28;20025;-78
2022/05/18 12:52:02;;;;;;;3.15;1.85;;;29.20;24.30;;;;;;5067291;28;20047;-79
2022/05/18 12:54:50;;;;;;;4.15;2.00;;;29.20;24.80;;;;;;5090833;28;20081;-78
2022/05/18 12:57:39;;;;;;;2.80;1.80;;;29.20;25.10;;;;;;5077692;28;20028;-78
2022/05/18 13:00:40;;;;;;;3.80;1.85;;;29.40;24.30;;;;;;5060927;28;20033;-79
2022/05/18 13:03:08;;;;;;;2.30;1.63;;;29.60;22.90;;;;;;5051999;28;20024;-79
2022/05/18 13:05:41;;;;;;;2.95;1.77;;;29.50;22.80;;;;;;5074784;28;20425;-79
2022/05/18 13:08:37;;;;;;;3.95;1.88;;;29.50;23.30;;;;;;5097600;28;20024;-78
2022/05/18 13:11:13;;;;;;;3.25;1.85;;;29.60;23.90;;;;;;5076010;28;20044;-75
2022/05/18 13:13:58;;;;;;;3.08;1.80;;;29.60;24.00;;;;;;5074623;28;20337;-74
2022/05/18 13:16:38;;;;;;;6.80;1.95;;;29.50;24.20;;;;;;5074354;28;20028;-74
2022/05/18 13:19:13;;;;;;;6.00;1.88;;;29.80;25.50;;;;;;5076258;28;20055;-74
2022/05/18 13:22:11;;;;;;;20.70;13.32;;;30.20;25.30;;;;;;5108982;28;20039;-85
2022/05/18 13:24:45;;;;;;;1.95;1.60;;;30.70;23.90;;;;;;5108301;28;20031;-88
2022/05/18 13:27:19;;;;;;;3.13;1.85;;;30.90;22.40;;;;;;5096169;28;20028;-89
2022/05/18 13:29:46;;;;;;;2.17;1.30;;;30.90;20.10;;;;;;5096152;28;20032;-88